createdAt,value
2022-10-12T00:01:27.109Z,62.58
2022-10-12T00:04:29.982Z,62.48
2022-10-12T00:07:32.818Z,62.57
2022-10-12T00:10:40.463Z,62.59
2022-10-12T00:13:43.320Z,62.57
2022-10-12T00:16:46.120Z,62.51
2022-10-12T00:19:50.392Z,62.59
2022-10-12T00:22:53.217Z,62.59
2022-10-12T00:25:56.119Z,62.73
2022-10-12T00:29:01.819Z,62.70
2022-10-12T00:32:05.897Z,62.79
2022-10-12T00:35:09.017Z,62.85
2022-10-12T00:38:11.981Z,62.83
2022-10-12T00:41:16.147Z,62.80
2022-10-12T00:44:52.053Z,62.84
2022-10-12T00:47:58.507Z,62.86
2022-10-12T00:51:03.165Z,62.98
2022-10-12T00:54:12.343Z,62.94
2022-10-12T00:57:18.215Z,62.94
2022-10-12T01:00:22.777Z,63.08
2022-10-12T01:03:25.647Z,62.99
2022-10-12T01:06:30.129Z,63.02
2022-10-12T01:09:33.491Z,62.95
2022-10-12T01:12:38.571Z,62.98
2022-10-12T01:16:01.601Z,62.96
2022-10-12T01:19:57.290Z,62.88
2022-10-12T01:23:15.632Z,62.99
2022-10-12T01:26:50.883Z,62.93
2022-10-12T01:30:14.154Z,63.00
2022-10-12T01:33:31.098Z,62.91
2022-10-12T01:36:41.578Z,62.88
2022-10-12T01:39:52.329Z,62.80
2022-10-12T01:42:56.994Z,62.82
2022-10-12T01:46:25.779Z,62.75
2022-10-12T01:49:32.882Z,62.80
2022-10-12T01:52:56.483Z,62.64
2022-10-12T01:56:10.735Z,62.59
2022-10-12T01:59:32.350Z,62.69
2022-10-12T02:02:59.218Z,62.82
2022-10-12T02:06:16.109Z,62.68
2022-10-12T02:09:26.340Z,62.81
2022-10-12T02:12:31.599Z,62.84
2022-10-12T02:15:38.469Z,62.95
2022-10-12T02:18:45.313Z,62.98
2022-10-12T02:21:49.525Z,62.88
2022-10-12T02:24:56.201Z,62.93
2022-10-12T02:28:17.230Z,62.83
2022-10-12T02:31:35.708Z,62.85
2022-10-12T02:34:46.447Z,62.89
2022-10-12T02:37:56.641Z,62.92
2022-10-12T02:41:14.419Z,62.94
2022-10-12T02:44:24.489Z,63.03
2022-10-12T02:47:30.224Z,62.81
2022-10-12T02:50:33.414Z,62.83
2022-10-12T02:53:36.741Z,62.84
2022-10-12T02:56:45.551Z,62.78
2022-10-12T02:59:48.374Z,62.82
2022-10-12T03:02:51.164Z,62.91
2022-10-12T03:05:54.121Z,63.00
2022-10-12T03:08:57.413Z,62.89
2022-10-12T03:12:00.238Z,63.07
2022-10-12T03:15:03.307Z,63.08
2022-10-12T03:18:06.127Z,63.00
2022-10-12T03:21:09.550Z,63.17
2022-10-12T03:24:12.386Z,63.04
2022-10-12T03:27:15.178Z,63.15
2022-10-12T03:30:18.054Z,63.10
2022-10-12T03:33:21.003Z,63.12
2022-10-12T03:36:23.818Z,62.94
2022-10-12T03:39:26.998Z,62.79
2022-10-12T03:42:29.780Z,63.02
2022-10-12T03:45:32.911Z,62.96
2022-10-12T03:48:35.817Z,63.03
2022-10-12T03:51:38.669Z,63.12
2022-10-12T03:54:41.465Z,62.99
2022-10-12T03:57:45.710Z,62.92
2022-10-12T04:00:55.501Z,62.66
2022-10-12T04:03:58.343Z,62.81
2022-10-12T04:07:01.163Z,63.02
2022-10-12T04:10:05.265Z,62.86
2022-10-12T04:13:08.155Z,62.95
2022-10-12T04:16:11.097Z,62.90
2022-10-12T04:19:14.149Z,62.91
2022-10-12T04:22:17.088Z,63.01
2022-10-12T04:25:19.970Z,62.94
2022-10-12T04:28:22.872Z,63.02
2022-10-12T04:31:25.748Z,63.22
2022-10-12T04:34:28.973Z,63.09
2022-10-12T04:37:32.113Z,63.13
2022-10-12T04:40:35.002Z,63.13
2022-10-12T04:43:37.774Z,63.06
2022-10-12T04:46:40.585Z,62.92
2022-10-12T04:49:43.492Z,62.99
2022-10-12T04:52:46.520Z,63.13
2022-10-12T04:55:49.468Z,62.82
2022-10-12T04:58:52.668Z,62.90
2022-10-12T05:01:55.633Z,63.03
2022-10-12T05:04:58.618Z,63.15
2022-10-12T05:08:02.369Z,63.14
2022-10-12T05:11:05.370Z,63.08
2022-10-12T05:14:09.299Z,63.18
2022-10-12T05:17:12.960Z,63.24
2022-10-12T05:20:15.976Z,63.29
2022-10-12T05:23:18.798Z,63.28
2022-10-12T05:26:22.257Z,63.43
2022-10-12T05:29:25.319Z,63.47
2022-10-12T05:32:28.335Z,63.37
2022-10-12T05:35:31.248Z,63.57
2022-10-12T05:38:34.571Z,63.41
2022-10-12T05:41:37.415Z,63.57
2022-10-12T05:44:40.254Z,63.53
2022-10-12T05:47:43.061Z,63.54
2022-10-12T05:50:45.935Z,63.64
2022-10-12T05:53:48.833Z,63.65
2022-10-12T05:56:51.737Z,63.86
2022-10-12T05:59:54.623Z,63.85
2022-10-12T06:02:57.833Z,63.92
2022-10-12T06:06:01.008Z,63.96
2022-10-12T06:09:03.875Z,64.11
2022-10-12T06:12:07.837Z,64.23
2022-10-12T06:15:11.192Z,64.23
2022-10-12T06:18:14.771Z,64.36
2022-10-12T06:21:34.475Z,64.39
2022-10-12T06:24:38.708Z,64.52
2022-10-12T06:27:44.960Z,64.62
2022-10-12T06:30:59.512Z,64.73
2022-10-12T06:34:02.431Z,64.73
2022-10-12T06:37:05.491Z,64.75
2022-10-12T06:40:08.983Z,64.77
2022-10-12T06:43:12.021Z,64.75
2022-10-12T06:46:14.927Z,65.04
2022-10-12T06:49:17.954Z,65.09
2022-10-12T06:52:21.071Z,65.24
2022-10-12T06:55:25.922Z,65.41
2022-10-12T06:58:28.802Z,65.51
2022-10-12T07:01:31.839Z,65.72
2022-10-12T07:04:34.826Z,65.91
2022-10-12T07:07:38.531Z,65.97
2022-10-12T07:10:41.387Z,66.03
2022-10-12T07:13:44.309Z,66.21
2022-10-12T07:16:52.868Z,66.51
2022-10-12T07:19:57.949Z,66.72
2022-10-12T07:23:00.810Z,66.86
2022-10-12T07:26:04.605Z,67.14
2022-10-12T07:29:07.840Z,67.37
2022-10-12T07:32:10.826Z,67.38
2022-10-12T07:35:13.790Z,67.58
2022-10-12T07:38:16.723Z,67.84
2022-10-12T07:41:19.707Z,68.07
2022-10-12T07:44:22.887Z,68.14
2022-10-12T07:47:25.771Z,68.36
2022-10-12T07:50:28.657Z,68.41
2022-10-12T07:53:34.197Z,68.64
2022-10-12T07:56:37.100Z,68.62
2022-10-12T07:59:39.984Z,68.68
2022-10-12T08:02:43.503Z,68.66
2022-10-12T08:05:46.419Z,68.61
2022-10-12T08:08:49.400Z,68.48
2022-10-12T08:11:52.282Z,68.44
2022-10-12T08:14:55.161Z,68.49
2022-10-12T08:17:57.981Z,68.53
2022-10-12T08:21:04.688Z,68.56
2022-10-12T08:24:08.183Z,68.57
2022-10-12T08:27:11.002Z,68.55
2022-10-12T08:30:14.366Z,68.44
2022-10-12T08:33:18.826Z,68.40
2022-10-12T08:36:38.837Z,68.24
2022-10-12T08:39:41.783Z,67.96
2022-10-12T08:42:56.599Z,68.16
2022-10-12T08:46:02.713Z,68.22
2022-10-12T08:49:24.072Z,68.05
2022-10-12T08:52:43.855Z,67.81
2022-10-12T08:55:47.106Z,67.66
2022-10-12T08:58:51.710Z,67.39
2022-10-12T09:02:13.465Z,67.30
2022-10-12T09:05:24.264Z,67.14
2022-10-12T09:09:10.313Z,66.76
2022-10-12T09:12:21.459Z,66.76
2022-10-12T09:15:35.166Z,66.54
2022-10-12T09:18:45.789Z,66.22
2022-10-12T09:21:49.832Z,66.21
2022-10-12T09:24:53.048Z,65.87
2022-10-12T09:28:13.228Z,65.58
2022-10-12T09:31:48.365Z,65.47
2022-10-12T09:34:51.118Z,65.27
2022-10-12T09:37:54.836Z,64.95
2022-10-12T09:40:57.744Z,64.91
2022-10-12T09:44:03.341Z,64.62
2022-10-12T09:47:24.056Z,64.59
2022-10-12T09:50:40.975Z,64.48
2022-10-12T09:53:48.944Z,64.48
2022-10-12T09:56:52.479Z,64.42
2022-10-12T09:59:55.849Z,64.25
2022-10-12T10:02:59.729Z,64.05
2022-10-12T10:06:04.507Z,63.94
2022-10-12T10:09:27.408Z,64.06
2022-10-12T10:12:30.491Z,63.75
2022-10-12T10:15:40.879Z,63.73
2022-10-12T10:18:48.799Z,63.59
2022-10-12T10:21:53.423Z,63.49
2022-10-12T10:25:00.429Z,63.27
2022-10-12T10:28:34.931Z,63.33
2022-10-12T10:31:38.013Z,63.19
2022-10-12T10:34:43.993Z,63.10
2022-10-12T10:37:50.611Z,62.61
2022-10-12T10:40:57.136Z,62.19
2022-10-12T10:44:00.043Z,61.90
2022-10-12T10:47:12.254Z,61.49
2022-10-12T10:50:38.264Z,61.28
2022-10-12T10:53:47.593Z,61.05
2022-10-12T10:56:53.694Z,61.05
2022-10-12T11:00:33.346Z,61.01
2022-10-12T11:04:00.110Z,60.94
2022-10-12T11:07:17.022Z,60.46
2022-10-12T11:10:33.306Z,60.47
2022-10-12T11:13:41.731Z,60.77
2022-10-12T11:16:54.348Z,60.86
2022-10-12T11:20:06.173Z,60.98
2022-10-12T11:23:38.782Z,60.78
2022-10-12T11:26:50.097Z,60.26
2022-10-12T11:30:09.204Z,60.38
2022-10-12T11:33:19.580Z,60.49
2022-10-12T11:36:26.661Z,60.16
2022-10-12T11:39:45.208Z,59.80
2022-10-12T11:42:49.897Z,59.59
2022-10-12T11:45:57.157Z,59.38
2022-10-12T11:49:06.613Z,58.98
2022-10-12T11:52:11.430Z,58.84
2022-10-12T11:55:50.605Z,58.71
2022-10-12T11:59:23.950Z,58.70
2022-10-12T12:02:44.414Z,58.53
2022-10-12T12:05:47.275Z,58.62
2022-10-12T12:08:51.686Z,58.49
2022-10-12T12:12:24.257Z,58.49
2022-10-12T12:15:27.123Z,58.05
2022-10-12T12:18:33.907Z,58.11
2022-10-12T12:22:14.218Z,58.08
2022-10-12T12:25:22.472Z,58.07
2022-10-12T12:28:25.427Z,58.02
2022-10-12T12:31:29.021Z,58.00
2022-10-12T12:34:31.829Z,57.80
2022-10-12T12:37:35.121Z,57.82
2022-10-12T12:40:40.299Z,57.55
2022-10-12T12:43:49.270Z,57.62
2022-10-12T12:46:52.141Z,57.87
2022-10-12T12:50:05.551Z,57.88
2022-10-12T12:53:20.144Z,57.77
2022-10-12T12:56:25.936Z,57.62
2022-10-12T12:59:42.371Z,57.43
2022-10-12T13:03:12.764Z,57.30
2022-10-12T13:06:42.563Z,57.37
2022-10-12T13:10:02.095Z,57.44
2022-10-12T13:13:23.219Z,57.33
2022-10-12T13:20:27.088Z,57.73
2022-10-12T13:23:30.136Z,57.65
2022-10-12T13:26:35.846Z,57.52
2022-10-12T13:29:51.375Z,57.68
2022-10-12T13:33:11.471Z,57.65
2022-10-12T13:36:23.429Z,57.54
2022-10-12T13:39:27.361Z,57.21
2022-10-12T13:42:34.550Z,57.24
2022-10-12T13:45:44.905Z,57.01
2022-10-12T13:48:59.875Z,57.04
2022-10-12T13:52:11.787Z,56.89
2022-10-12T13:55:16.105Z,56.81
2022-10-12T13:58:24.412Z,56.91
2022-10-12T14:01:28.125Z,57.07
2022-10-12T14:04:33.746Z,57.00
2022-10-12T14:07:39.476Z,56.79
2022-10-12T14:10:44.473Z,56.90
2022-10-12T14:13:47.886Z,56.98
2022-10-12T14:16:51.780Z,56.88
2022-10-12T14:19:56.412Z,56.60
2022-10-12T14:23:01.582Z,56.63
2022-10-12T14:26:04.486Z,56.65
2022-10-12T14:29:32.381Z,56.65
2022-10-12T14:32:35.261Z,56.87
2022-10-12T14:35:42.172Z,56.91
2022-10-12T14:38:47.363Z,57.05
2022-10-12T14:41:51.375Z,57.23
2022-10-12T14:44:54.928Z,57.49
2022-10-12T14:47:59.896Z,57.51
2022-10-12T14:51:02.816Z,57.72
2022-10-12T14:54:09.980Z,57.83
2022-10-12T14:57:15.195Z,57.92
2022-10-12T15:00:20.597Z,57.96
2022-10-12T15:03:24.051Z,58.27
2022-10-12T15:06:27.129Z,58.29
2022-10-12T15:09:29.967Z,58.26
2022-10-12T15:12:33.207Z,58.44
2022-10-12T15:15:46.903Z,58.67
2022-10-12T15:18:50.804Z,58.73
2022-10-12T15:21:53.922Z,58.91
2022-10-12T15:24:56.851Z,59.02
2022-10-12T15:27:59.733Z,59.22
2022-10-12T15:31:19.005Z,59.30
2022-10-12T15:34:22.420Z,59.47
2022-10-12T15:37:30.289Z,59.57
2022-10-12T15:40:34.509Z,59.49
2022-10-12T15:43:39.705Z,59.77
2022-10-12T15:46:46.201Z,59.80
2022-10-12T15:49:49.018Z,60.01
2022-10-12T15:52:52.675Z,60.18
2022-10-12T15:55:56.109Z,60.23
2022-10-12T15:58:59.332Z,60.34
2022-10-12T16:02:02.190Z,60.41
2022-10-12T16:05:14.442Z,60.47
2022-10-12T16:08:17.298Z,60.48
2022-10-12T16:11:20.406Z,60.55
2022-10-12T16:14:23.636Z,60.59
2022-10-12T16:17:28.101Z,60.75
2022-10-12T16:20:36.785Z,60.83
2022-10-12T16:23:40.908Z,61.04
2022-10-12T16:26:45.130Z,61.06
2022-10-12T16:29:48.111Z,61.37
2022-10-12T16:32:51.662Z,61.34
2022-10-12T16:35:54.448Z,61.52
2022-10-12T16:38:57.643Z,61.61
2022-10-12T16:42:00.570Z,61.67
2022-10-12T16:45:04.320Z,61.51
2022-10-12T16:48:07.363Z,61.61
2022-10-12T16:51:13.015Z,61.51
2022-10-12T16:54:16.649Z,61.70
2022-10-12T16:57:20.201Z,61.69
2022-10-12T17:00:26.020Z,61.88
2022-10-12T17:03:28.804Z,62.13
2022-10-12T17:06:31.700Z,62.06
2022-10-12T17:09:34.536Z,62.07
2022-10-12T17:12:37.571Z,62.09
2022-10-12T17:15:41.575Z,62.32
2022-10-12T17:18:44.419Z,62.28
2022-10-12T17:21:48.167Z,62.31
2022-10-12T17:24:51.116Z,62.50
2022-10-12T17:27:53.934Z,62.64
2022-10-12T17:30:58.128Z,62.67
2022-10-12T17:34:03.190Z,62.82
2022-10-12T17:37:07.288Z,62.90
2022-10-12T17:40:10.736Z,63.05
2022-10-12T17:43:13.527Z,63.01
2022-10-12T17:46:21.633Z,62.85
2022-10-12T17:49:27.290Z,63.00
2022-10-12T17:52:30.207Z,62.88
2022-10-12T17:55:48.109Z,62.96
2022-10-12T17:58:56.851Z,62.95
2022-10-12T18:02:00.117Z,62.94
2022-10-12T18:05:03.104Z,63.10
2022-10-12T18:08:06.011Z,63.06
2022-10-12T18:11:09.385Z,63.03
2022-10-12T18:14:13.401Z,63.35
2022-10-12T18:17:16.291Z,63.21
2022-10-12T18:20:19.170Z,63.51
2022-10-12T18:23:21.999Z,63.43
2022-10-12T18:26:25.045Z,63.51
2022-10-12T18:29:27.976Z,63.53
2022-10-12T18:32:30.772Z,63.44
2022-10-12T18:35:34.526Z,63.55
2022-10-12T18:38:37.656Z,63.48
2022-10-12T18:41:40.804Z,63.49
2022-10-12T18:44:44.936Z,63.54
2022-10-12T18:47:47.900Z,63.52
2022-10-12T18:50:52.586Z,63.56
2022-10-12T18:53:56.762Z,63.34
2022-10-12T18:57:07.307Z,63.51
2022-10-12T19:00:10.748Z,63.46
2022-10-12T19:03:13.654Z,63.40
2022-10-12T19:06:19.735Z,63.33
2022-10-12T19:09:23.645Z,63.44
2022-10-12T19:12:27.183Z,63.53
2022-10-12T19:15:30.600Z,63.55
2022-10-12T19:18:33.464Z,63.49
2022-10-12T19:21:36.250Z,63.54
2022-10-12T19:24:39.094Z,63.51
2022-10-12T19:27:41.999Z,63.60
2022-10-12T19:30:44.847Z,63.51
2022-10-12T19:33:47.887Z,63.50
2022-10-12T19:36:57.267Z,63.54
2022-10-12T19:40:07.759Z,63.51
2022-10-12T19:43:10.985Z,63.55
2022-10-12T19:46:14.006Z,63.75
2022-10-12T19:49:18.465Z,63.64
2022-10-12T19:52:21.454Z,63.69
2022-10-12T19:55:24.810Z,63.70
2022-10-12T19:58:28.295Z,63.61
2022-10-12T20:01:35.028Z,63.65
2022-10-12T20:04:37.977Z,63.70
2022-10-12T20:07:40.965Z,63.59
2022-10-12T20:10:43.801Z,63.64
2022-10-12T20:13:48.165Z,63.63
2022-10-12T20:16:51.319Z,63.54
2022-10-12T20:19:55.517Z,63.61
2022-10-12T20:22:58.406Z,63.55
2022-10-12T20:26:05.504Z,63.63
2022-10-12T20:29:08.786Z,63.66
2022-10-12T20:32:11.719Z,63.56
2022-10-12T20:35:14.577Z,63.56
2022-10-12T20:38:18.158Z,63.54
2022-10-12T20:41:21.962Z,63.65
2022-10-12T20:44:24.862Z,63.67
2022-10-12T20:47:30.905Z,63.61
2022-10-12T20:50:34.308Z,63.79
2022-10-12T20:53:38.012Z,63.66
2022-10-12T20:56:42.607Z,63.73
2022-10-12T20:59:48.870Z,63.61
2022-10-12T21:02:51.755Z,63.77
2022-10-12T21:05:54.532Z,63.73
2022-10-12T21:08:58.252Z,63.80
2022-10-12T21:12:02.917Z,63.89
2022-10-12T21:15:06.257Z,63.82
2022-10-12T21:18:09.198Z,63.83
2022-10-12T21:21:13.426Z,63.81
2022-10-12T21:24:16.666Z,63.86
2022-10-12T21:27:19.530Z,63.81
2022-10-12T21:30:22.348Z,63.89
2022-10-12T21:33:25.258Z,63.90
2022-10-12T21:36:30.003Z,63.87
2022-10-12T21:39:32.847Z,63.96
2022-10-12T21:42:35.688Z,63.94
2022-10-12T21:45:38.492Z,63.94
2022-10-12T21:48:41.396Z,63.88
2022-10-12T21:51:44.195Z,64.02
2022-10-12T21:54:47.226Z,64.05
2022-10-12T21:57:50.061Z,63.99
2022-10-12T22:00:52.948Z,64.08
2022-10-12T22:03:58.056Z,63.99
2022-10-12T22:07:00.899Z,64.09
2022-10-12T22:10:04.119Z,63.94
2022-10-12T22:13:08.248Z,64.06
2022-10-12T22:16:14.572Z,64.06
2022-10-12T22:19:21.540Z,64.12
2022-10-12T22:22:24.319Z,64.13
2022-10-12T22:25:27.254Z,64.17
2022-10-12T22:28:30.929Z,64.12
2022-10-12T22:31:34.803Z,64.10
2022-10-12T22:34:37.632Z,63.94
2022-10-12T22:37:40.487Z,64.07
2022-10-12T22:40:43.255Z,64.04
2022-10-12T22:43:47.276Z,64.16
2022-10-12T22:46:50.089Z,64.02
2022-10-12T22:49:52.897Z,64.08
2022-10-12T22:52:55.729Z,64.05
2022-10-12T22:56:00.849Z,63.96
2022-10-12T22:59:07.076Z,64.06
2022-10-12T23:02:09.978Z,64.04
2022-10-12T23:05:12.833Z,64.19
2022-10-12T23:08:15.829Z,64.03
2022-10-12T23:11:21.232Z,63.91
2022-10-12T23:14:24.192Z,64.06
2022-10-12T23:17:27.026Z,64.05
2022-10-12T23:20:30.226Z,64.07
2022-10-12T23:23:35.549Z,64.07
2022-10-12T23:26:38.407Z,64.04
2022-10-12T23:29:41.214Z,63.94
2022-10-12T23:32:44.492Z,64.10
2022-10-12T23:35:58.140Z,64.05
2022-10-12T23:39:04.589Z,63.78
2022-10-12T23:42:07.447Z,63.86
2022-10-12T23:45:10.404Z,63.97
2022-10-12T23:48:14.284Z,63.94
2022-10-12T23:51:18.104Z,64.05
2022-10-12T23:54:20.947Z,64.24
2022-10-12T23:57:45.763Z,64.15
